createdAt,value
2024-03-16T05:47:28.780Z,94397.63
2024-03-16T05:49:55.461Z,94394.56
2024-03-16T05:52:22.116Z,94385.13
2024-03-16T05:54:48.762Z,94375.69
2024-03-16T05:57:16.454Z,94376.75
2024-03-16T06:02:27.183Z,94383.38
2024-03-16T06:04:53.761Z,94389.75
2024-03-16T06:07:20.328Z,94393.75
2024-03-16T06:12:31.067Z,94408.38
2024-03-16T06:14:57.702Z,94415.91
2024-03-16T06:17:24.358Z,94413.88
2024-03-16T06:19:51.010Z,94401.72
2024-03-16T06:22:17.656Z,94414.53
2024-03-16T06:24:45.275Z,94420.84
2024-03-16T06:27:11.934Z,94411.41
2024-03-16T06:29:38.786Z,94424.81
2024-03-16T06:32:24.580Z,94434.75
2024-03-16T06:40:21.379Z,94436.38
2024-03-16T06:45:35.002Z,94445.81
2024-03-16T06:48:02.070Z,94453.31
2024-03-16T06:50:31.621Z,94454.59
2024-03-16T06:52:58.589Z,94446.66
2024-03-16T07:01:18.338Z,94437.25
2024-03-16T07:09:11.692Z,94445.31
2024-03-16T07:11:38.525Z,94448.19
2024-03-16T07:14:05.182Z,94456.94
2024-03-16T07:16:31.730Z,94459.50
2024-03-16T07:18:58.341Z,94462.63
2024-03-16T07:21:26.483Z,94459.91
2024-03-16T07:23:54.816Z,94474.31
2024-03-16T07:26:21.379Z,94477.97
2024-03-16T07:28:47.960Z,94470.22
2024-03-16T07:31:14.854Z,94480.16
2024-03-16T07:33:41.510Z,94477.72
2024-03-16T07:36:08.103Z,94478.97
2024-03-16T07:38:34.680Z,94488.31
2024-03-16T07:41:01.530Z,94495.59
2024-03-16T07:43:28.085Z,94500.31
2024-03-16T07:45:54.725Z,94497.13
2024-03-16T07:48:21.293Z,94502.91
2024-03-16T07:50:48.855Z,94502.78
2024-03-16T07:53:15.470Z,94511.75
2024-03-16T07:55:42.028Z,94512.53
2024-03-16T07:58:08.768Z,94518.16
2024-03-16T08:00:35.516Z,94518.38
2024-03-16T08:03:02.127Z,94514.59
2024-03-16T08:05:29.698Z,94517.84
2024-03-16T08:07:56.275Z,94516.63
2024-03-16T08:10:22.958Z,94518.47
2024-03-16T08:12:49.744Z,94523.69
2024-03-16T08:15:16.370Z,94525.22
2024-03-16T08:20:28.057Z,94530.03
2024-03-16T08:22:54.613Z,94528.31
2024-03-16T08:25:21.290Z,94527.97
2024-03-16T08:27:47.949Z,94533.13
2024-03-16T08:30:14.540Z,94534.91
2024-03-16T08:32:43.161Z,94522.38
2024-03-16T08:35:09.708Z,94523.59
2024-03-16T08:40:20.724Z,94524.72
2024-03-16T08:42:47.385Z,94533.47
2024-03-16T08:45:13.973Z,94524.16
2024-03-16T08:47:40.631Z,94534.72
2024-03-16T08:50:07.294Z,94547.34
2024-03-16T08:52:37.787Z,94548.19
2024-03-16T08:55:05.349Z,94539.22
2024-03-16T08:57:31.977Z,94549.38
2024-03-16T08:59:58.621Z,94546.56
2024-03-16T09:02:25.185Z,94540.31
2024-03-16T09:04:52.657Z,94547.28
2024-03-16T09:07:19.583Z,94544.44
2024-03-16T09:09:47.241Z,94553.28
2024-03-16T09:12:13.834Z,94556.53
2024-03-16T09:14:40.398Z,94564.44
2024-03-16T09:17:07.001Z,94558.75
2024-03-16T09:19:33.551Z,94575.94
2024-03-16T09:22:00.138Z,94569.78
2024-03-16T09:24:26.778Z,94575.09
2024-03-16T09:26:53.357Z,94574.47
2024-03-16T09:29:20.047Z,94581.69
2024-03-16T09:31:46.611Z,94582.53
2024-03-16T09:34:14.221Z,94587.28
2024-03-16T09:39:09.270Z,94593.38
2024-03-16T09:41:35.818Z,94595.75
